Time;durP1;ratioP1;P1;durP2;ratioP2;P2;SDS_P1;SDS_P2;PMS_P1;PMS_P2;Temp;Humidity;BMP_temperature;BMP_pressure;BME280_temperature;BME280_humidity;BME280_pressure;Samples;Min_cycle;Max_cycle;Signal;HPM_P1;HPM_P2
2022/08/14 00:00:03;;;;;;;7.03;5.22;;;21.50;99.90;;;;;;5096352;27;20363;-68
2022/08/14 00:02:29;;;;;;;5.80;5.20;;;21.50;99.90;;;;;;5112504;27;20053;-68
2022/08/14 00:04:55;;;;;;;7.28;5.40;;;21.50;99.90;;;;;;5095617;27;20343;-68
2022/08/14 00:07:20;;;;;;;7.30;4.30;;;21.50;99.90;;;;;;5048106;27;20270;-69
2022/08/14 00:09:46;;;;;;;6.00;4.90;;;21.50;99.90;;;;;;5113227;27;20380;-69
2022/08/14 00:12:12;;;;;;;6.07;4.97;;;21.50;99.90;;;;;;5080244;27;20195;-69
2022/08/14 00:14:39;;;;;;;5.88;5.38;;;21.50;99.90;;;;;;5113067;27;20035;-69
2022/08/14 00:17:05;;;;;;;8.00;5.28;;;21.50;99.90;;;;;;5113522;27;20049;-69
2022/08/14 00:19:31;;;;;;;6.72;5.50;;;21.50;99.90;;;;;;5096263;27;20502;-69
2022/08/14 00:21:56;;;;;;;8.32;6.07;;;21.60;99.90;;;;;;5097203;27;20130;-68
2022/08/14 00:24:22;;;;;;;10.30;5.88;;;21.60;99.90;;;;;;5113185;27;20047;-69
2022/08/14 00:26:48;;;;;;;10.73;5.60;;;21.60;99.90;;;;;;5113351;27;20038;-69
2022/08/14 00:29:14;;;;;;;6.03;5.40;;;21.80;99.90;;;;;;5104768;27;20035;-69
2022/08/14 00:31:40;;;;;;;7.65;5.65;;;21.80;99.90;;;;;;5095164;27;20460;-69
2022/08/14 00:34:05;;;;;;;7.60;5.65;;;21.90;99.90;;;;;;5112810;27;20030;-69
2022/08/14 00:36:31;;;;;;;6.50;5.80;;;22.00;99.90;;;;;;5086371;27;20267;-70
2022/08/14 00:39:00;;;;;;;6.22;5.03;;;21.90;99.90;;;;;;5093513;27;20388;-70
2022/08/14 00:41:30;;;;;;;6.93;5.70;;;22.00;99.90;;;;;;5111553;27;20397;-70
2022/08/14 00:43:56;;;;;;;8.35;5.70;;;21.90;99.90;;;;;;5112378;27;20054;-69
2022/08/14 00:46:22;;;;;;;6.32;5.72;;;21.90;99.90;;;;;;5095550;27;20039;-69
2022/08/14 00:48:48;;;;;;;6.40;5.90;;;21.80;99.90;;;;;;5096293;27;20528;-69
2022/08/14 00:51:14;;;;;;;8.02;5.75;;;21.80;99.90;;;;;;5113317;27;20081;-69
2022/08/14 00:53:41;;;;;;;7.35;5.78;;;21.80;99.90;;;;;;5112447;27;20201;-69
2022/08/14 00:56:08;;;;;;;8.98;6.05;;;21.80;99.90;;;;;;5103866;27;20682;-69
2022/08/14 00:58:35;;;;;;;5.95;5.38;;;21.80;99.90;;;;;;5112660;27;20400;-69
2022/08/14 01:01:05;;;;;;;6.55;5.63;;;21.80;99.90;;;;;;5108151;27;20515;-68
2022/08/14 01:03:32;;;;;;;5.85;5.35;;;21.70;99.90;;;;;;5099487;27;20845;-69
2022/08/14 01:05:58;;;;;;;8.77;5.97;;;21.70;99.90;;;;;;5080217;27;20465;-69
2022/08/14 01:08:28;;;;;;;6.57;5.25;;;21.70;99.90;;;;;;5107458;27;20039;-69
2022/08/14 01:10:56;;;;;;;8.15;5.47;;;21.70;99.90;;;;;;5107542;27;20225;-69
2022/08/14 01:13:35;;;;;;;6.65;5.82;;;21.60;99.90;;;;;;5082120;27;20128;-69
2022/08/14 01:16:04;;;;;;;6.68;6.07;;;21.60;99.90;;;;;;5084236;27;20035;-69
2022/08/14 01:21:21;;;;;;;7.93;5.90;;;21.60;99.90;;;;;;5108432;27;20567;-70
2022/08/14 01:23:55;;;;;;;7.75;5.72;;;21.50;99.90;;;;;;5081714;27;20031;-69
2022/08/14 01:26:23;;;;;;;6.78;5.68;;;21.50;99.90;;;;;;5108569;27;20085;-69
2022/08/14 01:28:54;;;;;;;8.02;6.45;;;21.50;99.90;;;;;;5108336;27;20884;-69
2022/08/14 01:31:23;;;;;;;9.23;6.65;;;21.50;99.90;;;;;;5084916;27;20474;-69
2022/08/14 01:33:52;;;;;;;10.82;6.32;;;21.40;99.90;;;;;;5099523;27;20050;-69
2022/08/14 01:36:19;;;;;;;6.53;5.93;;;21.40;99.90;;;;;;5079525;27;20631;-68
2022/08/14 01:38:50;;;;;;;7.40;6.63;;;21.30;99.90;;;;;;5108360;27;20047;-69
2022/08/14 01:41:19;;;;;;;9.05;6.63;;;21.30;99.90;;;;;;5107368;27;20038;-69
2022/08/14 01:43:59;;;;;;;7.53;6.70;;;21.30;99.90;;;;;;5107716;27;20115;-69
2022/08/14 01:46:28;;;;;;;7.78;6.72;;;21.30;99.90;;;;;;5108603;27;20095;-68
2022/08/14 01:48:55;;;;;;;8.35;7.00;;;21.20;99.90;;;;;;5089174;27;20040;-68
2022/08/14 01:51:22;;;;;;;8.57;6.63;;;21.20;99.90;;;;;;5091745;27;20582;-68
2022/08/14 01:53:52;;;;;;;11.77;7.10;;;21.20;99.90;;;;;;5107826;27;20035;-69
2022/08/14 01:56:19;;;;;;;7.07;6.38;;;21.20;99.90;;;;;;5107681;27;20048;-69
2022/08/14 01:58:48;;;;;;;8.40;6.60;;;21.10;99.90;;;;;;5107337;27;20317;-68
2022/08/14 02:01:18;;;;;;;9.85;7.07;;;21.10;99.90;;;;;;5077513;27;20050;-68
2022/08/14 02:03:45;;;;;;;8.48;6.72;;;21.00;99.90;;;;;;5107530;27;20103;-69
2022/08/14 02:06:12;;;;;;;8.77;7.07;;;21.00;99.90;;;;;;5107776;27;20047;-71
2022/08/14 02:08:39;;;;;;;8.00;7.30;;;21.00;99.90;;;;;;5108528;27;20249;-70
2022/08/14 02:11:17;;;;;;;6.97;6.25;;;21.00;99.90;;;;;;5108139;27;20035;-70
2022/08/14 02:13:49;;;;;;;9.70;7.47;;;21.10;99.90;;;;;;5108043;27;20546;-70
2022/08/14 02:16:24;;;;;;;9.52;7.10;;;21.10;99.90;;;;;;5081614;28;20047;-70
2022/08/14 02:18:51;;;;;;;9.00;7.05;;;21.10;99.90;;;;;;5106817;27;20047;-70
2022/08/14 02:21:18;;;;;;;8.30;7.45;;;21.10;99.90;;;;;;5082056;28;20057;-70
2022/08/14 02:23:50;;;;;;;9.45;7.25;;;21.00;99.90;;;;;;5107481;28;20066;-69
2022/08/14 02:26:25;;;;;;;8.50;7.18;;;21.00;99.90;;;;;;5105786;28;20898;-69
2022/08/14 02:28:58;;;;;;;8.05;7.10;;;20.90;99.90;;;;;;5106047;28;20150;-70
2022/08/14 02:31:29;;;;;;;8.15;6.88;;;20.90;99.90;;;;;;5081027;28;20472;-70
2022/08/14 02:33:55;;;;;;;8.77;7.30;;;20.80;99.90;;;;;;5080081;28;20099;-69
2022/08/14 02:36:21;;;;;;;9.27;6.90;;;20.70;99.90;;;;;;5098036;28;21775;-69
2022/08/14 02:38:48;;;;;;;7.93;6.63;;;20.70;99.90;;;;;;5107350;28;20401;-70
2022/08/14 02:41:14;;;;;;;9.25;7.40;;;20.70;99.90;;;;;;5084162;28;20535;-69
2022/08/14 02:43:41;;;;;;;8.00;7.13;;;20.60;99.90;;;;;;5106837;28;20078;-69
2022/08/14 02:46:09;;;;;;;9.52;6.90;;;20.60;99.90;;;;;;5106823;28;20602;-70
2022/08/14 02:48:40;;;;;;;8.90;6.50;;;20.60;99.90;;;;;;5090057;28;20031;-69
2022/08/14 02:51:09;;;;;;;8.00;6.95;;;20.60;99.90;;;;;;5089186;28;20067;-70
2022/08/14 02:53:38;;;;;;;7.80;7.00;;;20.60;99.90;;;;;;5106789;28;20039;-69
2022/08/14 02:56:04;;;;;;;7.65;6.95;;;20.60;99.90;;;;;;5107075;28;20147;-69
2022/08/14 02:58:32;;;;;;;8.48;7.70;;;20.60;99.90;;;;;;5105927;28;20654;-69
2022/08/14 03:00:59;;;;;;;8.25;7.45;;;20.60;99.90;;;;;;5084451;28;20055;-69
2022/08/14 03:03:25;;;;;;;8.07;7.35;;;20.50;99.90;;;;;;5088699;28;20072;-69
2022/08/14 03:05:52;;;;;;;8.80;6.93;;;20.60;99.90;;;;;;5107379;28;20278;-70
2022/08/14 03:08:18;;;;;;;7.75;6.95;;;20.50;99.90;;;;;;5107494;28;20513;-70
2022/08/14 03:10:45;;;;;;;8.73;7.30;;;20.60;99.90;;;;;;5090578;28;20505;-69
2022/08/14 03:13:10;;;;;;;7.68;6.85;;;20.60;99.90;;;;;;5107457;28;20039;-69
2022/08/14 03:15:39;;;;;;;7.25;6.63;;;20.70;99.90;;;;;;5089314;28;20105;-69
2022/08/14 03:18:09;;;;;;;8.95;7.55;;;20.70;99.90;;;;;;5088857;28;20039;-70
2022/08/14 03:20:35;;;;;;;8.45;7.55;;;20.70;99.90;;;;;;5090552;28;20244;-70
2022/08/14 03:23:01;;;;;;;8.25;6.65;;;20.80;99.90;;;;;;5107888;28;20347;-70
2022/08/14 03:25:30;;;;;;;7.55;6.65;;;20.90;99.90;;;;;;5108079;28;20047;-69
2022/08/14 03:27:55;;;;;;;6.88;6.18;;;21.00;99.90;;;;;;5105558;28;20490;-69
2022/08/14 03:30:22;;;;;;;6.70;6.10;;;21.10;99.90;;;;;;5106325;27;20250;-70
2022/08/14 03:32:47;;;;;;;6.25;5.43;;;21.20;99.90;;;;;;5109984;27;20051;-70
2022/08/14 03:35:13;;;;;;;6.68;5.97;;;21.30;99.90;;;;;;5110839;27;20523;-69
2022/08/14 03:37:39;;;;;;;6.90;5.53;;;21.40;99.90;;;;;;5111049;27;20082;-69
2022/08/14 03:40:06;;;;;;;6.40;5.80;;;21.50;99.90;;;;;;5110462;27;20095;-69
2022/08/14 03:42:34;;;;;;;6.88;5.60;;;21.50;99.90;;;;;;5111831;27;20531;-70
2022/08/14 03:44:59;;;;;;;11.60;6.28;;;21.50;99.90;;;;;;5095414;27;20551;-71
2022/08/14 03:47:25;;;;;;;7.22;5.80;;;21.50;99.90;;;;;;5112225;27;20039;-69
2022/08/14 03:49:51;;;;;;;7.70;6.18;;;21.50;99.90;;;;;;5094611;27;20250;-69
2022/08/14 03:52:17;;;;;;;6.95;6.30;;;21.50;99.90;;;;;;5078801;27;20508;-69
2022/08/14 03:54:45;;;;;;;7.25;6.07;;;21.50;99.90;;;;;;5111942;27;20027;-70
2022/08/14 03:57:11;;;;;;;7.07;6.05;;;21.60;99.90;;;;;;5082102;27;20149;-70
2022/08/14 03:59:36;;;;;;;7.88;5.90;;;21.60;99.90;;;;;;5092610;27;20568;-70
2022/08/14 04:02:03;;;;;;;6.22;5.63;;;21.50;99.90;;;;;;5092043;27;20066;-70
2022/08/14 04:04:29;;;;;;;9.05;6.10;;;21.40;99.90;;;;;;5087760;27;20058;-70
2022/08/14 04:06:55;;;;;;;6.95;6.22;;;21.40;99.90;;;;;;5110023;27;20031;-69
2022/08/14 04:09:21;;;;;;;6.32;5.57;;;21.40;99.90;;;;;;5109388;27;20172;-70
2022/08/14 04:11:47;;;;;;;8.55;6.00;;;21.30;99.90;;;;;;5110352;27;20269;-70
2022/08/14 04:14:13;;;;;;;7.18;6.03;;;21.30;99.90;;;;;;5110740;27;20309;-69
2022/08/14 04:16:44;;;;;;;7.93;6.10;;;21.30;99.90;;;;;;5091126;27;20701;-70
2022/08/14 04:19:10;;;;;;;6.75;5.97;;;21.20;99.90;;;;;;5093704;27;20794;-69
2022/08/14 04:21:35;;;;;;;6.25;5.65;;;21.30;99.90;;;;;;5093507;27;20035;-69
2022/08/14 04:24:01;;;;;;;6.40;5.70;;;21.30;99.90;;;;;;5109853;27;20046;-69
2022/08/14 04:26:29;;;;;;;9.25;6.35;;;21.30;99.90;;;;;;5109458;27;20054;-68
2022/08/14 04:28:56;;;;;;;7.40;6.68;;;21.20;99.90;;;;;;5109151;27;20087;-69
2022/08/14 04:31:23;;;;;;;8.27;6.45;;;21.30;99.90;;;;;;5109091;27;20132;-69
2022/08/14 04:33:51;;;;;;;7.78;6.47;;;21.20;99.90;;;;;;5108528;27;20254;-69
2022/08/14 04:36:17;;;;;;;8.60;6.78;;;21.10;99.90;;;;;;5109828;27;20038;-69
2022/08/14 04:44:11;;;;;;;7.60;6.82;;;21.00;99.90;;;;;;5108674;27;20116;-68
2022/08/14 04:46:37;;;;;;;8.43;6.95;;;21.00;99.90;;;;;;5090966;27;20281;-69
2022/08/14 04:49:04;;;;;;;8.38;7.22;;;21.00;99.90;;;;;;5108512;27;20042;-69
2022/08/14 04:51:31;;;;;;;7.18;6.57;;;21.00;99.90;;;;;;5109789;27;20054;-69
2022/08/14 04:53:59;;;;;;;7.30;6.22;;;21.10;99.90;;;;;;5108375;27;20146;-69
2022/08/14 04:56:26;;;;;;;8.18;7.40;;;21.10;99.90;;;;;;5092287;27;20057;-69
2022/08/14 04:58:56;;;;;;;7.85;6.72;;;21.10;99.90;;;;;;5109228;27;20043;-69
2022/08/14 05:01:25;;;;;;;8.88;7.30;;;21.20;99.90;;;;;;5108565;27;20051;-68
2022/08/14 05:03:51;;;;;;;8.60;6.88;;;21.10;99.90;;;;;;5108147;27;20103;-69
2022/08/14 05:06:17;;;;;;;7.45;6.75;;;21.10;99.90;;;;;;5110160;27;20053;-69
2022/08/14 05:08:43;;;;;;;8.23;6.22;;;21.10;99.90;;;;;;5109358;27;20043;-69
2022/08/14 05:11:10;;;;;;;9.05;6.88;;;21.10;99.90;;;;;;5108834;27;20051;-69
2022/08/14 05:13:37;;;;;;;7.47;6.75;;;21.10;99.90;;;;;;5100497;27;20114;-70
2022/08/14 05:16:05;;;;;;;7.93;6.78;;;21.10;99.90;;;;;;5075931;27;20122;-69
2022/08/14 05:18:34;;;;;;;8.27;6.13;;;21.10;99.90;;;;;;5083570;27;20031;-69
2022/08/14 05:21:02;;;;;;;6.70;6.05;;;21.10;99.90;;;;;;5090893;27;20417;-69
2022/08/14 05:24:10;;;;;;;8.15;6.30;;;21.20;99.90;;;;;;5091860;27;20073;-69
2022/08/14 05:26:39;;;;;;;6.97;6.28;;;21.30;99.90;;;;;;5068553;28;20685;-69
2022/08/14 05:29:08;;;;;;;8.55;6.07;;;21.30;99.90;;;;;;5067930;28;20043;-69
2022/08/14 05:31:39;;;;;;;6.90;6.30;;;21.30;99.90;;;;;;5088569;27;20066;-69
2022/08/14 05:34:06;;;;;;;6.65;5.90;;;21.30;99.90;;;;;;5108532;27;20094;-69
2022/08/14 05:36:32;;;;;;;8.73;7.10;;;21.50;99.90;;;;;;5108585;27;20612;-69
2022/08/14 05:38:58;;;;;;;9.18;6.50;;;21.50;99.90;;;;;;5108385;27;20057;-69
2022/08/14 05:41:23;;;;;;;7.30;6.60;;;21.50;99.90;;;;;;5108081;27;20043;-69
2022/08/14 05:43:49;;;;;;;7.10;6.38;;;21.70;99.90;;;;;;5091558;27;20120;-69
2022/08/14 05:46:21;;;;;;;7.40;6.63;;;21.90;99.90;;;;;;5107585;27;20042;-68
2022/08/14 05:48:55;;;;;;;7.28;6.53;;;22.00;99.90;;;;;;5090388;27;20046;-69
2022/08/14 05:51:22;;;;;;;8.63;6.40;;;22.10;99.90;;;;;;5107963;27;20046;-69
2022/08/14 05:53:48;;;;;;;6.80;5.88;;;22.10;99.90;;;;;;5107663;27;20072;-70
2022/08/14 05:56:14;;;;;;;7.38;6.00;;;22.20;99.90;;;;;;5107316;27;20519;-69
2022/08/14 05:58:40;;;;;;;7.53;5.65;;;22.40;99.90;;;;;;5079500;27;20038;-70
2022/08/14 06:01:08;;;;;;;6.25;5.72;;;22.60;99.90;;;;;;5107119;27;20651;-70
2022/08/14 06:03:34;;;;;;;6.47;5.82;;;22.60;99.90;;;;;;5107084;27;20078;-68
2022/08/14 06:06:00;;;;;;;6.70;6.13;;;22.90;99.90;;;;;;5089573;28;20035;-68
2022/08/14 06:08:28;;;;;;;5.47;4.97;;;22.90;99.90;;;;;;5090710;28;20070;-68
2022/08/14 06:11:01;;;;;;;5.80;5.20;;;23.10;99.90;;;;;;5099927;27;20043;-68
2022/08/14 06:13:41;;;;;;;6.78;5.28;;;23.20;99.90;;;;;;5107359;27;20038;-68
2022/08/14 06:16:08;;;;;;;6.85;5.47;;;23.30;99.90;;;;;;5109478;27;20031;-69
2022/08/14 06:18:34;;;;;;;6.00;5.47;;;23.20;99.90;;;;;;5109294;28;20058;-69
2022/08/14 06:21:04;;;;;;;9.55;6.30;;;23.30;99.90;;;;;;5108295;28;20095;-69
2022/08/14 06:23:30;;;;;;;6.30;5.80;;;23.40;99.90;;;;;;5091183;28;20031;-69
2022/08/14 06:25:55;;;;;;;6.30;5.80;;;23.50;99.90;;;;;;5090253;28;20098;-69
2022/08/14 06:28:24;;;;;;;6.70;6.00;;;23.50;99.90;;;;;;5080280;28;20039;-69
2022/08/14 06:30:51;;;;;;;6.60;5.65;;;23.50;99.90;;;;;;5108555;28;20039;-69
2022/08/14 06:33:18;;;;;;;6.30;5.70;;;23.70;99.90;;;;;;5091069;28;20066;-70
2022/08/14 06:35:45;;;;;;;6.47;5.20;;;23.80;99.90;;;;;;5107661;28;20038;-69
2022/08/14 06:38:15;;;;;;;5.80;4.93;;;24.00;99.90;;;;;;5107949;28;20031;-69
2022/08/14 06:40:41;;;;;;;5.43;4.95;;;24.30;99.90;;;;;;5125529;27;20047;-69
2022/08/14 06:43:10;;;;;;;5.47;4.75;;;24.20;99.90;;;;;;5109075;28;20051;-69
2022/08/14 06:45:41;;;;;;;7.72;5.90;;;24.10;99.90;;;;;;5108240;28;20035;-70
2022/08/14 06:48:16;;;;;;;7.60;6.35;;;23.90;99.90;;;;;;5107191;28;20044;-70
2022/08/14 06:50:43;;;;;;;6.63;5.50;;;23.70;99.90;;;;;;5108426;28;20454;-68
2022/08/14 06:53:10;;;;;;;8.93;6.30;;;23.50;99.90;;;;;;5109086;28;20128;-70
2022/08/14 06:55:36;;;;;;;6.30;5.78;;;23.70;99.90;;;;;;5090487;28;20357;-69
2022/08/14 06:58:02;;;;;;;6.72;5.70;;;23.70;99.90;;;;;;5108696;28;20047;-68
2022/08/14 07:00:28;;;;;;;6.68;6.05;;;23.70;99.90;;;;;;5112166;27;20054;-69
2022/08/14 07:05:46;;;;;;;7.70;6.70;;;23.40;99.90;;;;;;5113107;27;20038;-69
2022/08/14 07:08:27;;;;;;;7.60;6.47;;;23.50;99.90;;;;;;5116128;27;20087;-69
2022/08/14 07:10:57;;;;;;;7.40;6.70;;;23.70;99.90;;;;;;5107208;27;20042;-69
2022/08/14 07:13:23;;;;;;;6.93;6.32;;;23.90;99.90;;;;;;5099155;27;20035;-69
2022/08/14 07:15:51;;;;;;;9.02;5.82;;;24.00;99.90;;;;;;5084061;27;20044;-68
2022/08/14 07:18:25;;;;;;;7.68;6.78;;;24.30;99.90;;;;;;5098925;27;20096;-68
2022/08/14 07:20:52;;;;;;;7.03;6.32;;;24.50;99.90;;;;;;5098820;27;20392;-68
2022/08/14 07:23:18;;;;;;;6.35;5.82;;;24.70;99.90;;;;;;5099244;27;20049;-68
2022/08/14 07:25:44;;;;;;;6.82;6.13;;;24.80;99.90;;;;;;5115718;27;20038;-67
2022/08/14 07:28:16;;;;;;;7.30;6.22;;;25.00;99.90;;;;;;5113376;27;20308;-68
2022/08/14 07:30:42;;;;;;;6.70;5.88;;;25.00;99.90;;;;;;5116075;27;20078;-68
2022/08/14 07:33:09;;;;;;;6.50;5.90;;;24.90;99.90;;;;;;5099017;27;20078;-68
2022/08/14 07:35:36;;;;;;;6.38;5.78;;;24.80;99.90;;;;;;5119363;27;20034;-68
2022/08/14 07:38:03;;;;;;;6.30;5.70;;;25.00;99.90;;;;;;5102143;27;20513;-68
2022/08/14 07:40:29;;;;;;;8.15;5.45;;;25.00;99.90;;;;;;5119467;27;20436;-67
2022/08/14 07:42:54;;;;;;;7.22;5.20;;;25.10;99.90;;;;;;5118948;27;20129;-68
2022/08/14 07:45:20;;;;;;;6.35;5.78;;;25.20;99.90;;;;;;5104160;27;20561;-70
2022/08/14 07:47:46;;;;;;;7.45;5.82;;;25.30;99.90;;;;;;5115928;27;20587;-69
2022/08/14 07:50:16;;;;;;;4.85;4.45;;;25.50;99.90;;;;;;5116571;27;20461;-69
2022/08/14 07:52:44;;;;;;;5.53;5.05;;;26.00;99.90;;;;;;5118425;27;20094;-69
2022/08/14 07:55:11;;;;;;;6.28;5.13;;;26.30;99.90;;;;;;5116201;27;20542;-70
2022/08/14 07:57:42;;;;;;;6.38;5.00;;;26.50;99.90;;;;;;5101501;27;20514;-69
2022/08/14 08:00:11;;;;;;;5.20;4.70;;;26.70;99.90;;;;;;5117967;27;20495;-70
2022/08/14 08:02:42;;;;;;;5.18;4.68;;;26.70;99.90;;;;;;5118200;27;20038;-70
2022/08/14 08:05:09;;;;;;;5.85;4.97;;;27.10;99.90;;;;;;5101985;27;20050;-70
2022/08/14 08:07:36;;;;;;;7.38;4.40;;;27.10;99.90;;;;;;5114239;27;20058;-70
2022/08/14 08:13:07;;;;;;;5.53;4.75;;;27.10;99.90;;;;;;5114369;27;20041;-70
2022/08/14 08:15:40;;;;;;;4.57;4.18;;;27.10;99.90;;;;;;5116899;27;20515;-70
2022/08/14 08:18:08;;;;;;;5.57;5.05;;;27.40;99.90;;;;;;5132190;27;20679;-69
2022/08/14 08:20:38;;;;;;;5.70;4.63;;;27.30;99.90;;;;;;5097954;27;20500;-69
2022/08/14 08:23:05;;;;;;;5.50;4.88;;;27.40;99.90;;;;;;5097572;27;20469;-69
2022/08/14 08:25:34;;;;;;;5.43;4.75;;;27.50;99.90;;;;;;5113454;27;20046;-69
2022/08/14 08:27:59;;;;;;;4.50;4.10;;;27.70;99.90;;;;;;5113644;27;20255;-69
2022/08/14 08:30:26;;;;;;;5.55;4.40;;;27.90;99.90;;;;;;5098834;27;20172;-70
2022/08/14 08:32:54;;;;;;;5.50;4.30;;;28.10;99.90;;;;;;5114277;27;20461;-70
2022/08/14 08:35:24;;;;;;;6.68;4.68;;;28.10;99.90;;;;;;5113863;27;20038;-68
2022/08/14 08:37:53;;;;;;;4.88;4.45;;;28.10;99.90;;;;;;5113525;27;20051;-68
2022/08/14 08:40:23;;;;;;;5.72;4.35;;;28.20;99.90;;;;;;5114189;27;20115;-66
2022/08/14 08:42:49;;;;;;;4.95;3.90;;;28.20;99.90;;;;;;5096905;27;20051;-68
2022/08/14 08:45:15;;;;;;;4.65;4.25;;;28.10;99.90;;;;;;5113573;27;20053;-68
2022/08/14 08:47:42;;;;;;;4.93;4.43;;;28.10;99.90;;;;;;5112426;27;20195;-68
2022/08/14 08:50:21;;;;;;;5.47;4.65;;;28.20;99.90;;;;;;5074047;27;20146;-68
2022/08/14 08:52:51;;;;;;;8.00;4.80;;;28.50;99.90;;;;;;5109908;27;20038;-67
2022/08/14 08:55:38;;;;;;;5.65;3.95;;;28.50;99.90;;;;;;5111965;27;20070;-67
2022/08/14 08:58:10;;;;;;;5.10;4.50;;;28.50;99.90;;;;;;5113153;27;20508;-69
2022/08/14 09:00:38;;;;;;;4.43;4.03;;;28.50;99.90;;;;;;5115382;27;20107;-70
2022/08/14 09:03:09;;;;;;;4.80;4.38;;;28.40;99.90;;;;;;5116558;27;20647;-70
2022/08/14 09:05:37;;;;;;;4.70;4.30;;;28.40;99.90;;;;;;5099573;27;20034;-70
2022/08/14 09:08:11;;;;;;;4.88;4.20;;;28.50;99.90;;;;;;5117452;27;20555;-70
2022/08/14 09:10:37;;;;;;;4.57;4.22;;;28.50;99.90;;;;;;5104281;27;20041;-70
2022/08/14 09:13:03;;;;;;;6.53;4.40;;;28.60;99.90;;;;;;5117464;27;20039;-70
2022/08/14 09:15:29;;;;;;;5.00;4.20;;;28.60;99.90;;;;;;5117110;27;20091;-70
2022/08/14 09:17:56;;;;;;;5.03;4.43;;;28.50;99.90;;;;;;5083174;27;20134;-70
2022/08/14 09:20:22;;;;;;;4.43;4.03;;;28.50;99.90;;;;;;5115707;27;20047;-70
2022/08/14 09:22:49;;;;;;;4.65;4.20;;;28.60;99.90;;;;;;5098894;27;20072;-71
2022/08/14 09:25:16;;;;;;;4.50;4.20;;;28.60;99.90;;;;;;5097149;27;20645;-70
2022/08/14 09:27:42;;;;;;;4.78;4.38;;;28.80;99.90;;;;;;5115980;27;20038;-70
2022/08/14 09:30:09;;;;;;;4.28;3.97;;;28.80;99.90;;;;;;5098004;27;20046;-69
2022/08/14 09:33:01;;;;;;;6.70;4.32;;;28.80;99.90;;;;;;5098217;27;20085;-69
2022/08/14 09:35:46;;;;;;;6.30;4.03;;;28.80;99.90;;;;;;5115899;27;20034;-69
2022/08/14 09:38:33;;;;;;;4.38;3.97;;;28.80;99.90;;;;;;5097570;27;20052;-70
2022/08/14 09:41:26;;;;;;;4.38;3.80;;;28.80;99.90;;;;;;5132972;27;20653;-70
2022/08/14 09:44:02;;;;;;;7.30;4.15;;;28.90;99.90;;;;;;5119540;27;20038;-68
2022/08/14 09:46:28;;;;;;;5.10;4.22;;;29.10;99.90;;;;;;5118447;27;20581;-69
2022/08/14 09:49:06;;;;;;;7.50;4.05;;;29.40;99.90;;;;;;5099803;27;20038;-68
2022/08/14 09:51:41;;;;;;;3.90;3.53;;;29.50;99.90;;;;;;5097536;27;20130;-69
2022/08/14 09:54:11;;;;;;;4.97;3.78;;;29.30;99.90;;;;;;5096903;27;20034;-69
2022/08/14 09:56:48;;;;;;;3.80;3.50;;;29.40;99.90;;;;;;5113931;27;20227;-69
2022/08/14 09:59:16;;;;;;;6.30;3.50;;;29.50;99.90;;;;;;5095768;27;20058;-69
2022/08/14 10:01:43;;;;;;;3.97;3.67;;;29.50;99.90;;;;;;5113924;27;20102;-70
2022/08/14 10:04:24;;;;;;;3.95;3.53;;;29.50;99.90;;;;;;5084142;27;20721;-70
2022/08/14 10:06:50;;;;;;;5.68;4.05;;;29.70;99.90;;;;;;5115031;27;20046;-70
2022/08/14 10:09:17;;;;;;;4.35;3.38;;;29.70;99.90;;;;;;5113130;27;20035;-69
2022/08/14 10:11:57;;;;;;;4.20;3.80;;;29.80;99.90;;;;;;5116120;27;20095;-68
2022/08/14 10:14:24;;;;;;;4.88;3.63;;;29.80;99.90;;;;;;5119112;27;20038;-68
2022/08/14 10:16:53;;;;;;;4.18;3.80;;;29.90;99.90;;;;;;5128564;27;20137;-69
2022/08/14 10:19:21;;;;;;;5.07;3.92;;;29.80;99.90;;;;;;5119905;27;20057;-69
2022/08/14 10:22:06;;;;;;;4.82;4.28;;;29.70;99.90;;;;;;5119784;27;20083;-68
2022/08/14 10:24:45;;;;;;;4.50;3.92;;;29.90;99.90;;;;;;5118861;27;20094;-69
2022/08/14 10:27:17;;;;;;;3.90;3.42;;;30.00;99.90;;;;;;5102081;27;20670;-69
2022/08/14 10:29:58;;;;;;;6.68;3.90;;;30.10;99.90;;;;;;5138356;27;20629;-69
2022/08/14 10:32:25;;;;;;;5.07;3.80;;;30.20;99.90;;;;;;5120016;27;20039;-68
2022/08/14 10:35:03;;;;;;;4.13;3.72;;;30.40;99.90;;;;;;5098482;27;20023;-68
2022/08/14 10:37:48;;;;;;;3.80;3.50;;;30.60;99.90;;;;;;5116751;27;20122;-69
2022/08/14 10:40:25;;;;;;;5.50;3.88;;;30.60;99.90;;;;;;5115421;27;20121;-66
2022/08/14 10:42:51;;;;;;;4.85;3.55;;;30.90;99.90;;;;;;5119278;27;20046;-69
2022/08/14 10:45:21;;;;;;;6.47;3.90;;;31.30;99.90;;;;;;5119611;27;20033;-69
2022/08/14 10:47:51;;;;;;;5.32;3.40;;;31.20;99.90;;;;;;5117744;27;20043;-68
2022/08/14 10:50:31;;;;;;;4.18;3.50;;;31.30;99.90;;;;;;5101027;27;20049;-69
2022/08/14 10:52:59;;;;;;;4.32;3.50;;;31.20;99.90;;;;;;5119623;27;20133;-69
2022/08/14 10:55:38;;;;;;;3.45;3.15;;;31.30;99.90;;;;;;5138520;27;20066;-68
2022/08/14 10:58:10;;;;;;;3.75;3.35;;;31.30;99.90;;;;;;5091620;27;20567;-67
2022/08/14 11:00:38;;;;;;;3.95;3.58;;;31.20;99.30;;;;;;5115613;27;20051;-68
2022/08/14 11:03:08;;;;;;;3.03;2.78;;;31.00;98.60;;;;;;5116194;27;20677;-67
2022/08/14 11:05:46;;;;;;;3.50;3.20;;;30.90;99.10;;;;;;5115805;27;20483;-67
2022/08/14 11:08:16;;;;;;;4.38;3.92;;;30.90;99.90;;;;;;5114711;27;20571;-69
2022/08/14 11:10:55;;;;;;;4.15;3.63;;;31.00;99.60;;;;;;5114842;27;20072;-70
2022/08/14 11:13:29;;;;;;;3.95;3.55;;;30.90;99.90;;;;;;5116525;27;20122;-68
2022/08/14 11:15:59;;;;;;;6.93;3.50;;;30.80;99.70;;;;;;5115636;27;20077;-68
2022/08/14 11:18:26;;;;;;;6.05;3.60;;;30.90;99.60;;;;;;5105491;27;20035;-69
2022/08/14 11:20:58;;;;;;;7.20;3.63;;;30.80;99.90;;;;;;5114756;27;20074;-68
2022/08/14 11:23:38;;;;;;;4.25;3.85;;;30.90;99.90;;;;;;5114655;27;20039;-69
2022/08/14 11:26:05;;;;;;;4.47;3.50;;;31.10;99.20;;;;;;5113033;27;20058;-69
2022/08/14 11:28:33;;;;;;;6.00;3.58;;;30.70;99.40;;;;;;5102021;27;20035;-68
2022/08/14 11:31:01;;;;;;;3.38;3.08;;;31.00;99.20;;;;;;5111551;27;20070;-69
2022/08/14 11:33:30;;;;;;;4.07;3.67;;;31.30;97.60;;;;;;5102250;27;20043;-70
2022/08/14 11:36:04;;;;;;;4.30;3.30;;;31.70;95.40;;;;;;5111898;27;20043;-68
2022/08/14 11:38:37;;;;;;;4.85;3.20;;;31.70;95.60;;;;;;5111191;27;20039;-68
2022/08/14 11:41:04;;;;;;;3.40;3.20;;;31.90;95.90;;;;;;5111161;27;20165;-68
2022/08/14 11:43:31;;;;;;;3.90;3.10;;;32.10;94.00;;;;;;5111585;27;20043;-69
2022/08/14 11:45:57;;;;;;;4.43;3.38;;;32.00;93.10;;;;;;5111047;27;20514;-68
2022/08/14 11:48:24;;;;;;;6.28;3.72;;;32.00;93.90;;;;;;5110867;27;20050;-69
2022/08/14 11:50:54;;;;;;;5.38;3.28;;;32.30;92.80;;;;;;5111676;27;20292;-68
2022/08/14 11:53:21;;;;;;;3.45;3.13;;;32.30;91.30;;;;;;5103689;27;20051;-69
2022/08/14 11:55:53;;;;;;;3.95;3.00;;;32.10;93.60;;;;;;5112134;27;20551;-68
2022/08/14 11:58:29;;;;;;;4.72;3.45;;;32.10;91.80;;;;;;5112538;27;20054;-68
2022/08/14 12:00:58;;;;;;;3.70;3.10;;;32.20;91.20;;;;;;5119676;27;20050;-69
2022/08/14 12:03:45;;;;;;;5.07;3.20;;;31.50;91.90;;;;;;5114798;27;20611;-68
2022/08/14 12:06:16;;;;;;;3.20;3.00;;;31.60;91.10;;;;;;5099540;27;20038;-69
2022/08/14 12:08:42;;;;;;;4.18;3.25;;;31.60;90.80;;;;;;5115290;27;20277;-68
2022/08/14 12:11:12;;;;;;;4.20;3.05;;;31.70;91.40;;;;;;5114064;27;20110;-69
2022/08/14 12:13:38;;;;;;;3.97;3.13;;;31.90;90.50;;;;;;5083337;27;20043;-69
2022/08/14 12:16:07;;;;;;;3.83;3.42;;;31.90;88.90;;;;;;5114388;27;20652;-68
2022/08/14 12:18:36;;;;;;;3.45;3.00;;;32.00;90.00;;;;;;5114763;27;20039;-69
2022/08/14 12:21:11;;;;;;;5.28;3.20;;;32.00;90.40;;;;;;5113992;27;20134;-69
2022/08/14 12:23:37;;;;;;;3.28;2.97;;;32.20;92.30;;;;;;5113505;27;20053;-68
2022/08/14 12:26:12;;;;;;;4.05;3.22;;;32.20;91.40;;;;;;5114004;27;20661;-69
2022/08/14 12:28:39;;;;;;;3.17;2.85;;;32.10;90.00;;;;;;5096673;27;20167;-69
2022/08/14 12:31:16;;;;;;;3.75;3.42;;;31.90;90.50;;;;;;5113673;27;20049;-68
2022/08/14 12:33:42;;;;;;;5.68;3.13;;;31.90;90.40;;;;;;5114910;27;20520;-68
2022/08/14 12:36:21;;;;;;;5.15;3.80;;;31.70;91.40;;;;;;5131563;27;20035;-68
2022/08/14 12:38:50;;;;;;;3.55;3.25;;;31.90;92.00;;;;;;5114487;27;20523;-68
2022/08/14 12:41:20;;;;;;;3.90;2.78;;;32.20;88.20;;;;;;5113007;27;20317;-68
2022/08/14 12:43:53;;;;;;;5.38;3.30;;;32.00;82.30;;;;;;5113238;27;20142;-68
2022/08/14 12:46:40;;;;;;;5.47;3.40;;;31.40;85.90;;;;;;5112644;27;20616;-69
2022/08/14 12:49:12;;;;;;;6.35;3.67;;;30.90;87.70;;;;;;5082864;27;20596;-69
2022/08/14 12:51:38;;;;;;;4.07;3.58;;;30.70;91.10;;;;;;5113194;27;20161;-69
2022/08/14 12:54:16;;;;;;;5.43;3.40;;;31.30;91.20;;;;;;5096589;27;20154;-69
2022/08/14 12:56:44;;;;;;;5.32;3.13;;;31.40;92.30;;;;;;5096983;27;20351;-69
2022/08/14 12:59:13;;;;;;;3.50;3.15;;;31.80;91.40;;;;;;5095558;27;20106;-68
2022/08/14 13:01:39;;;;;;;3.95;2.90;;;32.00;86.80;;;;;;5112067;27;20065;-68
2022/08/14 13:04:14;;;;;;;4.32;3.35;;;32.20;87.30;;;;;;5103019;27;20034;-69
2022/08/14 13:06:43;;;;;;;3.88;3.33;;;32.30;85.40;;;;;;5112701;27;20065;-69
2022/08/14 13:09:11;;;;;;;3.72;3.38;;;32.20;84.30;;;;;;5100697;27;20454;-68